LNI259 WIEE-WARR
Flight info
| Callsign | LNI259 |
|---|---|
| Flight time | 2h 22m |
| Altitude | 35000 |
| Route | PASOL W25 PLB G461 BIDAK B469 HLM G461 BA |
| Aircraft | B739/M-SDE2E3FGHIRWXY/LB1 |
Departure
| Time | 2026-05-06 18:08 |
|---|---|
| Airport | Minangkabau International Airport (WIEE) |
Arrival
| Time | 2026-05-06 20:30 |
|---|---|
| Airport | Juanda International Airport (WARR) |
| Time | Latitude | Longitude | Altitude | Speed | Heading |
|---|---|---|---|---|---|
| 2026-05-06 18:03 | -0.78749 | 100.28436 | 25 ft | 14 kts | 155° |
| 2026-05-06 18:03 | -0.78824 | 100.28471 | 26 ft | 10 kts | 155° |
| 2026-05-06 18:03 | -0.78887 | 100.28466 | 23 ft | 10 kts | 225° |
| 2026-05-06 18:03 | -0.78918 | 100.28406 | 24 ft | 10 kts | 245° |
| 2026-05-06 18:04 | -0.78946 | 100.28345 | 28 ft | 10 kts | 245° |
| 2026-05-06 18:04 | -0.78974 | 100.28286 | 30 ft | 9 kts | 245° |
| 2026-05-06 18:04 | -0.79016 | 100.28242 | 30 ft | 9 kts | 193° |
| 2026-05-06 18:04 | -0.79078 | 100.28260 | 29 ft | 10 kts | 155° |
| 2026-05-06 18:05 | -0.79124 | 100.28281 | 28 ft | 12 kts | 155° |
| 2026-05-06 18:05 | -0.79221 | 100.28326 | 28 ft | 18 kts | 155° |
| 2026-05-06 18:05 | -0.79354 | 100.28388 | 27 ft | 24 kts | 155° |
| 2026-05-06 18:05 | -0.79580 | 100.28493 | 28 ft | 28 kts | 155° |
| 2026-05-06 18:06 | -0.79687 | 100.28543 | 29 ft | 17 kts | 155° |
| 2026-05-06 18:06 | -0.79745 | 100.28586 | 29 ft | 8 kts | 122° |
| 2026-05-06 18:06 | -0.79773 | 100.28627 | 29 ft | 6 kts | 136° |
| 2026-05-06 18:06 | -0.79804 | 100.28613 | 29 ft | 6 kts | 244° |
| 2026-05-06 18:07 | -0.79785 | 100.28591 | 29 ft | 4 kts | 332° |
| 2026-05-06 18:07 | -0.79635 | 100.28519 | 29 ft | 58 kts | 335° |
| 2026-05-06 18:07 | -0.79052 | 100.28248 | 30 ft | 124 kts | 335° |
| 2026-05-06 18:07 | -0.78094 | 100.27805 | 24 ft | 177 kts | 335° |
| 2026-05-06 18:08 | -0.76935 | 100.27273 | 540 ft | 183 kts | 335° |
| 2026-05-06 18:08 | -0.75763 | 100.26729 | 1239 ft | 187 kts | 335° |
| 2026-05-06 18:08 | -0.74571 | 100.26173 | 1860 ft | 195 kts | 335° |
| 2026-05-06 18:08 | -0.73270 | 100.25580 | 2072 ft | 217 kts | 336° |
| 2026-05-06 18:09 | -0.71831 | 100.24925 | 2279 ft | 236 kts | 336° |
| 2026-05-06 18:09 | -0.70313 | 100.24232 | 2717 ft | 244 kts | 335° |
| 2026-05-06 18:09 | -0.68744 | 100.23516 | 3322 ft | 249 kts | 335° |
| 2026-05-06 18:09 | -0.67175 | 100.22794 | 4075 ft | 248 kts | 335° |
| 2026-05-06 18:10 | -0.65599 | 100.22072 | 4733 ft | 251 kts | 335° |
| 2026-05-06 18:10 | -0.64166 | 100.21077 | 5320 ft | 255 kts | 308° |
| 2026-05-06 18:10 | -0.63418 | 100.19485 | 5942 ft | 257 kts | 279° |
| 2026-05-06 18:10 | -0.63483 | 100.17713 | 6535 ft | 259 kts | 253° |
| 2026-05-06 18:11 | -0.64150 | 100.16037 | 7144 ft | 261 kts | 245° |
| 2026-05-06 18:11 | -0.64948 | 100.14391 | 7737 ft | 265 kts | 244° |
| 2026-05-06 18:11 | -0.65757 | 100.12729 | 8350 ft | 267 kts | 244° |
| 2026-05-06 18:11 | -0.66559 | 100.11051 | 8935 ft | 269 kts | 245° |
| 2026-05-06 18:12 | -0.67362 | 100.09350 | 9503 ft | 272 kts | 245° |
| 2026-05-06 18:12 | -0.68342 | 100.07738 | 10042 ft | 275 kts | 223° |
| 2026-05-06 18:12 | -0.69963 | 100.06769 | 10604 ft | 274 kts | 194° |
| 2026-05-06 18:12 | -0.71858 | 100.06686 | 11152 ft | 275 kts | 167° |
| 2026-05-06 18:13 | -0.73636 | 100.07380 | 11703 ft | 277 kts | 150° |
| 2026-05-06 18:13 | -0.75309 | 100.08341 | 12281 ft | 278 kts | 149° |
| 2026-05-06 18:13 | -0.76995 | 100.09319 | 12801 ft | 282 kts | 149° |
| 2026-05-06 18:13 | -0.78705 | 100.10294 | 13325 ft | 285 kts | 149° |
| 2026-05-06 18:14 | -0.80436 | 100.11271 | 13855 ft | 287 kts | 149° |
| 2026-05-06 18:14 | -0.82045 | 100.12434 | 14332 ft | 288 kts | 128° |
| 2026-05-06 18:14 | -0.82950 | 100.14196 | 14801 ft | 288 kts | 101° |
| 2026-05-06 18:14 | -0.83009 | 100.16229 | 14936 ft | 303 kts | 78° |
| 2026-05-06 18:15 | -0.82352 | 100.18285 | 15089 ft | 319 kts | 69° |
| 2026-05-06 18:15 | -0.81526 | 100.20399 | 15213 ft | 334 kts | 69° |
| 2026-05-06 18:15 | -0.80664 | 100.22612 | 15329 ft | 350 kts | 69° |
| 2026-05-06 18:15 | -0.79784 | 100.24930 | 15430 ft | 364 kts | 70° |
| 2026-05-06 18:16 | -0.79280 | 100.27436 | 15486 ft | 376 kts | 91° |
| 2026-05-06 18:16 | -0.79736 | 100.30034 | 15665 ft | 386 kts | 111° |
| 2026-05-06 18:16 | -0.80885 | 100.32472 | 16041 ft | 389 kts | 116° |
| 2026-05-06 18:16 | -0.82130 | 100.34881 | 16465 ft | 391 kts | 116° |
| 2026-05-06 18:17 | -0.83367 | 100.37306 | 16868 ft | 393 kts | 116° |
| 2026-05-06 18:17 | -0.84589 | 100.39753 | 17257 ft | 395 kts | 115° |
| 2026-05-06 18:17 | -0.85805 | 100.42221 | 17613 ft | 397 kts | 115° |
| 2026-05-06 18:17 | -0.87014 | 100.44712 | 17967 ft | 399 kts | 115° |
| 2026-05-06 18:18 | -0.88221 | 100.47213 | 18327 ft | 401 kts | 115° |
| 2026-05-06 18:18 | -0.89436 | 100.49728 | 18662 ft | 403 kts | 115° |
| 2026-05-06 18:18 | -0.90659 | 100.52253 | 18968 ft | 404 kts | 115° |
| 2026-05-06 18:18 | -0.91894 | 100.54788 | 19292 ft | 407 kts | 115° |
| 2026-05-06 18:19 | -0.93151 | 100.57331 | 19576 ft | 410 kts | 115° |
| 2026-05-06 18:19 | -0.94421 | 100.59883 | 19900 ft | 411 kts | 115° |
| 2026-05-06 18:19 | -0.95698 | 100.62447 | 20193 ft | 413 kts | 115° |
| 2026-05-06 18:19 | -0.96981 | 100.65025 | 20453 ft | 415 kts | 115° |
| 2026-05-06 18:20 | -0.98269 | 100.67614 | 20738 ft | 417 kts | 115° |
| 2026-05-06 18:20 | -0.99559 | 100.70213 | 21019 ft | 418 kts | 115° |
| 2026-05-06 18:20 | -1.00852 | 100.72820 | 21275 ft | 420 kts | 115° |
| 2026-05-06 18:20 | -1.02153 | 100.75443 | 21564 ft | 421 kts | 115° |
| 2026-05-06 18:21 | -1.03456 | 100.78071 | 21827 ft | 423 kts | 115° |
| 2026-05-06 18:21 | -1.04766 | 100.80710 | 22060 ft | 425 kts | 115° |
| 2026-05-06 18:21 | -1.06081 | 100.83362 | 22298 ft | 426 kts | 115° |
| 2026-05-06 18:21 | -1.07397 | 100.86019 | 22525 ft | 428 kts | 115° |
| 2026-05-06 18:22 | -1.08723 | 100.88693 | 22726 ft | 430 kts | 115° |
| 2026-05-06 18:22 | -1.10053 | 100.91374 | 22920 ft | 432 kts | 115° |
| 2026-05-06 18:22 | -1.11385 | 100.94064 | 23147 ft | 433 kts | 115° |
| 2026-05-06 18:22 | -1.12701 | 100.96726 | 23382 ft | 433 kts | 115° |
| 2026-05-06 18:23 | -1.14053 | 100.99465 | 23565 ft | 434 kts | 115° |
| 2026-05-06 18:23 | -1.15373 | 101.02142 | 23734 ft | 436 kts | 115° |
| 2026-05-06 18:23 | -1.16714 | 101.04861 | 23910 ft | 437 kts | 115° |
| 2026-05-06 18:23 | -1.18060 | 101.07591 | 24102 ft | 438 kts | 115° |
| 2026-05-06 18:24 | -1.19408 | 101.10324 | 24292 ft | 439 kts | 115° |
| 2026-05-06 18:24 | -1.20759 | 101.13063 | 24451 ft | 441 kts | 115° |
| 2026-05-06 18:24 | -1.22115 | 101.15812 | 24605 ft | 442 kts | 115° |
| 2026-05-06 18:24 | -1.23476 | 101.18570 | 24776 ft | 443 kts | 115° |
| 2026-05-06 18:25 | -1.24842 | 101.21338 | 24917 ft | 444 kts | 115° |
| 2026-05-06 18:25 | -1.26209 | 101.24111 | 25052 ft | 446 kts | 115° |
| 2026-05-06 18:25 | -1.27582 | 101.26894 | 25210 ft | 447 kts | 115° |
| 2026-05-06 18:25 | -1.28956 | 101.29679 | 25359 ft | 447 kts | 115° |
| 2026-05-06 18:26 | -1.30334 | 101.32473 | 25513 ft | 449 kts | 115° |
| 2026-05-06 18:26 | -1.31717 | 101.35277 | 25609 ft | 451 kts | 115° |
| 2026-05-06 18:26 | -1.33102 | 101.38086 | 25755 ft | 451 kts | 115° |
| 2026-05-06 18:26 | -1.34490 | 101.40903 | 25900 ft | 452 kts | 115° |
| 2026-05-06 18:27 | -1.35881 | 101.43718 | 26037 ft | 453 kts | 115° |
| 2026-05-06 18:27 | -1.37276 | 101.46544 | 26164 ft | 454 kts | 115° |
| 2026-05-06 18:27 | -1.38676 | 101.49378 | 26289 ft | 455 kts | 115° |
| 2026-05-06 18:27 | -1.40076 | 101.52210 | 26407 ft | 455 kts | 115° |
| 2026-05-06 18:28 | -1.41482 | 101.55052 | 26544 ft | 456 kts | 115° |
| 2026-05-06 18:28 | -1.42886 | 101.57892 | 26660 ft | 457 kts | 115° |
| 2026-05-06 18:28 | -1.44297 | 101.60748 | 26775 ft | 458 kts | 115° |
| 2026-05-06 18:28 | -1.45705 | 101.63606 | 26887 ft | 457 kts | 116° |
| 2026-05-06 18:29 | -1.47126 | 101.66460 | 26963 ft | 461 kts | 115° |
| 2026-05-06 18:29 | -1.48544 | 101.69331 | 27094 ft | 460 kts | 115° |
| 2026-05-06 18:29 | -1.49958 | 101.72201 | 27236 ft | 461 kts | 115° |
| 2026-05-06 18:29 | -1.51378 | 101.75079 | 27330 ft | 462 kts | 115° |
| 2026-05-06 18:30 | -1.52797 | 101.77957 | 27408 ft | 463 kts | 115° |
| 2026-05-06 18:30 | -1.54221 | 101.80846 | 27508 ft | 464 kts | 115° |
| 2026-05-06 18:30 | -1.55648 | 101.83737 | 27612 ft | 464 kts | 115° |
| 2026-05-06 18:30 | -1.57079 | 101.86632 | 27707 ft | 465 kts | 115° |
| 2026-05-06 18:31 | -1.58509 | 101.89527 | 27809 ft | 466 kts | 115° |
| 2026-05-06 18:31 | -1.59944 | 101.92432 | 27915 ft | 466 kts | 115° |
| 2026-05-06 18:31 | -1.61377 | 101.95334 | 28161 ft | 463 kts | 115° |
| 2026-05-06 18:31 | -1.62805 | 101.98224 | 28196 ft | 465 kts | 115° |
| 2026-05-06 18:32 | -1.65678 | 102.04045 | 28234 ft | 469 kts | 115° |
| 2026-05-06 18:32 | -1.68554 | 102.09869 | 28404 ft | 470 kts | 115° |
| 2026-05-06 18:33 | -1.69999 | 102.12797 | 28522 ft | 470 kts | 115° |
| 2026-05-06 18:33 | -1.71445 | 102.15729 | 28609 ft | 471 kts | 115° |
| 2026-05-06 18:33 | -1.72896 | 102.18667 | 28717 ft | 471 kts | 115° |
| 2026-05-06 18:33 | -1.74341 | 102.21597 | 28838 ft | 470 kts | 115° |
| 2026-05-06 18:34 | -1.75786 | 102.24526 | 28993 ft | 469 kts | 115° |
| 2026-05-06 18:34 | -1.77230 | 102.27452 | 29096 ft | 469 kts | 115° |
| 2026-05-06 18:34 | -1.78674 | 102.30378 | 29204 ft | 469 kts | 115° |
| 2026-05-06 18:34 | -1.80079 | 102.33318 | 29334 ft | 469 kts | 114° |
| 2026-05-06 18:35 | -1.81461 | 102.36268 | 29446 ft | 469 kts | 114° |
| 2026-05-06 18:35 | -1.82842 | 102.39218 | 29571 ft | 468 kts | 114° |
| 2026-05-06 18:35 | -1.84220 | 102.42168 | 29707 ft | 468 kts | 114° |
| 2026-05-06 18:35 | -1.85592 | 102.45114 | 29827 ft | 468 kts | 114° |
| 2026-05-06 18:36 | -1.86962 | 102.48059 | 29952 ft | 467 kts | 114° |
| 2026-05-06 18:36 | -1.88331 | 102.51004 | 30071 ft | 467 kts | 114° |
| 2026-05-06 18:36 | -1.89702 | 102.53952 | 30195 ft | 467 kts | 114° |
| 2026-05-06 18:36 | -1.91070 | 102.56889 | 30352 ft | 466 kts | 114° |
| 2026-05-06 18:37 | -1.92437 | 102.59827 | 30526 ft | 466 kts | 114° |
| 2026-05-06 18:37 | -1.93342 | 102.61771 | 30640 ft | 465 kts | 114° |
| 2026-05-06 18:37 | -1.95170 | 102.65688 | 30787 ft | 466 kts | 114° |
| 2026-05-06 18:37 | -1.96538 | 102.68627 | 30918 ft | 466 kts | 114° |
| 2026-05-06 18:38 | -1.97903 | 102.71561 | 31122 ft | 465 kts | 114° |
| 2026-05-06 18:38 | -1.99264 | 102.74488 | 31329 ft | 463 kts | 114° |
| 2026-05-06 18:38 | -2.00621 | 102.77405 | 31502 ft | 463 kts | 114° |
| 2026-05-06 18:38 | -2.01978 | 102.80322 | 31639 ft | 464 kts | 114° |
| 2026-05-06 18:39 | -2.03342 | 102.83252 | 31785 ft | 464 kts | 114° |
| 2026-05-06 18:39 | -2.04699 | 102.86168 | 31971 ft | 463 kts | 114° |
| 2026-05-06 18:39 | -2.06056 | 102.89084 | 32175 ft | 462 kts | 114° |
| 2026-05-06 18:40 | -2.08764 | 102.94904 | 32534 ft | 461 kts | 114° |
| 2026-05-06 18:40 | -2.10116 | 102.97810 | 32718 ft | 461 kts | 114° |
| 2026-05-06 18:40 | -2.11465 | 103.00707 | 32855 ft | 460 kts | 114° |
| 2026-05-06 18:41 | -2.14168 | 103.06516 | 32863 ft | 461 kts | 114° |
| 2026-05-06 18:41 | -2.16870 | 103.12328 | 32865 ft | 462 kts | 114° |
| 2026-05-06 18:42 | -2.19582 | 103.18155 | 32865 ft | 462 kts | 114° |
| 2026-05-06 18:42 | -2.22295 | 103.23989 | 32863 ft | 463 kts | 114° |
| 2026-05-06 18:43 | -2.24994 | 103.29796 | 32862 ft | 464 kts | 114° |
| 2026-05-06 18:43 | -2.27716 | 103.35652 | 32858 ft | 464 kts | 114° |
| 2026-05-06 18:44 | -2.30438 | 103.41504 | 32863 ft | 464 kts | 114° |
| 2026-05-06 18:44 | -2.33161 | 103.47362 | 32861 ft | 465 kts | 114° |
| 2026-05-06 18:45 | -2.35885 | 103.53221 | 32861 ft | 464 kts | 114° |
| 2026-05-06 18:45 | -2.38607 | 103.59079 | 32861 ft | 465 kts | 114° |
| 2026-05-06 18:46 | -2.41330 | 103.64938 | 32863 ft | 464 kts | 114° |
| 2026-05-06 18:46 | -2.44047 | 103.70787 | 32860 ft | 463 kts | 114° |
| 2026-05-06 18:47 | -2.46762 | 103.76632 | 32858 ft | 463 kts | 114° |
| 2026-05-06 18:47 | -2.49474 | 103.82470 | 32861 ft | 463 kts | 114° |
| 2026-05-06 18:48 | -2.52183 | 103.88304 | 32861 ft | 463 kts | 114° |
| 2026-05-06 18:48 | -2.54892 | 103.94140 | 32863 ft | 463 kts | 114° |
| 2026-05-06 18:49 | -2.57605 | 103.99980 | 32860 ft | 463 kts | 114° |
| 2026-05-06 18:49 | -2.60316 | 104.05820 | 32861 ft | 463 kts | 114° |
| 2026-05-06 18:50 | -2.63026 | 104.11660 | 32864 ft | 463 kts | 114° |
| 2026-05-06 18:50 | -2.65281 | 104.16520 | 32863 ft | 464 kts | 114° |
| 2026-05-06 18:51 | -2.67998 | 104.22374 | 32858 ft | 464 kts | 114° |
| 2026-05-06 18:51 | -2.70718 | 104.28238 | 32863 ft | 465 kts | 114° |
| 2026-05-06 18:52 | -2.73442 | 104.34111 | 32862 ft | 466 kts | 115° |
| 2026-05-06 18:52 | -2.76172 | 104.39996 | 32861 ft | 466 kts | 115° |
| 2026-05-06 18:53 | -2.78903 | 104.45887 | 32861 ft | 467 kts | 115° |
| 2026-05-06 18:53 | -2.81637 | 104.51780 | 32861 ft | 467 kts | 115° |
| 2026-05-06 18:54 | -2.84371 | 104.57682 | 32862 ft | 468 kts | 115° |
| 2026-05-06 18:54 | -2.87117 | 104.63583 | 32861 ft | 468 kts | 116° |
| 2026-05-06 18:55 | -2.90790 | 104.68932 | 32869 ft | 468 kts | 130° |
| 2026-05-06 18:55 | -2.95042 | 104.73862 | 32861 ft | 468 kts | 130° |
| 2026-05-06 18:56 | -2.99287 | 104.78808 | 32858 ft | 469 kts | 130° |
| 2026-05-06 18:56 | -3.03509 | 104.83780 | 32862 ft | 469 kts | 130° |
| 2026-05-06 18:57 | -3.07719 | 104.88767 | 32861 ft | 469 kts | 130° |
| 2026-05-06 18:57 | -3.11928 | 104.93761 | 32860 ft | 469 kts | 130° |
| 2026-05-06 18:58 | -3.16140 | 104.98753 | 32863 ft | 469 kts | 130° |
| 2026-05-06 18:58 | -3.20355 | 105.03752 | 32863 ft | 469 kts | 130° |
| 2026-05-06 18:59 | -3.24565 | 105.08745 | 32860 ft | 470 kts | 130° |
| 2026-05-06 18:59 | -3.28783 | 105.13746 | 32859 ft | 470 kts | 130° |
| 2026-05-06 19:00 | -3.32969 | 105.18711 | 32861 ft | 470 kts | 130° |
| 2026-05-06 19:00 | -3.37218 | 105.23750 | 32860 ft | 470 kts | 130° |
| 2026-05-06 19:01 | -3.41406 | 105.28719 | 32863 ft | 470 kts | 130° |
| 2026-05-06 19:01 | -3.45628 | 105.33727 | 32861 ft | 470 kts | 130° |
| 2026-05-06 19:02 | -3.49844 | 105.38732 | 32861 ft | 470 kts | 130° |
| 2026-05-06 19:02 | -3.54051 | 105.43728 | 32859 ft | 470 kts | 130° |
| 2026-05-06 19:03 | -3.58273 | 105.48742 | 32862 ft | 470 kts | 130° |
| 2026-05-06 19:03 | -3.62493 | 105.53751 | 32858 ft | 471 kts | 130° |
| 2026-05-06 19:04 | -3.66713 | 105.58759 | 32863 ft | 471 kts | 130° |
| 2026-05-06 19:04 | -3.70937 | 105.63776 | 32860 ft | 471 kts | 130° |
| 2026-05-06 19:05 | -3.75157 | 105.68787 | 32859 ft | 471 kts | 129° |
| 2026-05-06 19:05 | -3.79379 | 105.73804 | 32862 ft | 471 kts | 129° |
| 2026-05-06 19:06 | -3.83606 | 105.78828 | 32864 ft | 471 kts | 129° |
| 2026-05-06 19:06 | -3.87833 | 105.83852 | 32861 ft | 472 kts | 129° |
| 2026-05-06 19:07 | -3.92059 | 105.88876 | 32859 ft | 472 kts | 129° |
| 2026-05-06 19:07 | -3.96285 | 105.93903 | 32862 ft | 472 kts | 129° |
| 2026-05-06 19:08 | -4.00517 | 105.98936 | 32861 ft | 472 kts | 129° |
| 2026-05-06 19:08 | -4.04285 | 106.04295 | 32872 ft | 471 kts | 119° |
| 2026-05-06 19:09 | -4.07423 | 106.10058 | 32862 ft | 471 kts | 118° |
| 2026-05-06 19:09 | -4.10543 | 106.15831 | 32860 ft | 471 kts | 118° |
| 2026-05-06 19:10 | -4.13705 | 106.21585 | 32862 ft | 472 kts | 118° |
| 2026-05-06 19:10 | -4.16889 | 106.27329 | 32861 ft | 471 kts | 119° |
| 2026-05-06 19:11 | -4.20058 | 106.33033 | 32861 ft | 472 kts | 118° |
| 2026-05-06 19:11 | -4.23269 | 106.38813 | 32860 ft | 472 kts | 119° |
| 2026-05-06 19:12 | -4.26459 | 106.44558 | 32861 ft | 472 kts | 119° |
| 2026-05-06 19:12 | -4.29625 | 106.50266 | 32862 ft | 472 kts | 118° |
| 2026-05-06 19:13 | -4.32813 | 106.56012 | 32860 ft | 472 kts | 119° |
| 2026-05-06 19:13 | -4.36004 | 106.61766 | 32862 ft | 472 kts | 118° |
| 2026-05-06 19:14 | -4.39192 | 106.67516 | 32861 ft | 472 kts | 118° |
| 2026-05-06 19:14 | -4.42380 | 106.73269 | 32870 ft | 472 kts | 118° |
| 2026-05-06 19:15 | -4.45571 | 106.79025 | 32872 ft | 472 kts | 118° |
| 2026-05-06 19:15 | -4.48760 | 106.84782 | 32871 ft | 472 kts | 118° |
| 2026-05-06 19:16 | -4.51951 | 106.90540 | 32871 ft | 473 kts | 118° |
| 2026-05-06 19:16 | -4.55142 | 106.96302 | 32864 ft | 473 kts | 118° |
| 2026-05-06 19:17 | -4.58339 | 107.02077 | 32860 ft | 473 kts | 118° |
| 2026-05-06 19:17 | -4.61533 | 107.07848 | 32862 ft | 473 kts | 118° |
| 2026-05-06 19:18 | -4.64730 | 107.13622 | 32860 ft | 474 kts | 118° |
| 2026-05-06 19:18 | -4.67924 | 107.19394 | 32861 ft | 474 kts | 118° |
| 2026-05-06 19:19 | -4.71119 | 107.25168 | 32859 ft | 474 kts | 118° |
| 2026-05-06 19:19 | -4.74312 | 107.30943 | 32861 ft | 474 kts | 118° |
| 2026-05-06 19:20 | -4.77509 | 107.36725 | 32859 ft | 474 kts | 118° |
| 2026-05-06 19:20 | -4.80708 | 107.42511 | 32861 ft | 474 kts | 118° |
| 2026-05-06 19:21 | -4.83905 | 107.48297 | 32860 ft | 475 kts | 118° |
| 2026-05-06 19:21 | -4.87103 | 107.54086 | 32863 ft | 474 kts | 118° |
| 2026-05-06 19:22 | -4.90278 | 107.59834 | 32873 ft | 474 kts | 118° |
| 2026-05-06 19:22 | -4.93495 | 107.65660 | 32880 ft | 474 kts | 118° |
| 2026-05-06 19:23 | -4.96670 | 107.71410 | 32880 ft | 474 kts | 118° |
| 2026-05-06 19:23 | -4.99865 | 107.77196 | 32880 ft | 474 kts | 118° |
| 2026-05-06 19:24 | -5.03057 | 107.82982 | 32879 ft | 474 kts | 118° |
| 2026-05-06 19:24 | -5.06251 | 107.88772 | 32878 ft | 475 kts | 118° |
| 2026-05-06 19:25 | -5.09448 | 107.94570 | 32882 ft | 475 kts | 118° |
| 2026-05-06 19:25 | -5.12647 | 108.00370 | 32878 ft | 476 kts | 118° |
| 2026-05-06 19:26 | -5.15847 | 108.06177 | 32881 ft | 475 kts | 118° |
| 2026-05-06 19:26 | -5.19047 | 108.11984 | 32879 ft | 476 kts | 118° |
| 2026-05-06 19:27 | -5.22251 | 108.17799 | 32871 ft | 476 kts | 118° |
| 2026-05-06 19:27 | -5.25452 | 108.23606 | 32871 ft | 476 kts | 118° |
| 2026-05-06 19:28 | -5.28652 | 108.29421 | 32872 ft | 476 kts | 118° |
| 2026-05-06 19:28 | -5.31853 | 108.35235 | 32870 ft | 476 kts | 118° |
| 2026-05-06 19:29 | -5.35051 | 108.41048 | 32871 ft | 476 kts | 118° |
| 2026-05-06 19:29 | -5.38249 | 108.46859 | 32870 ft | 476 kts | 118° |
| 2026-05-06 19:30 | -5.41451 | 108.52678 | 32869 ft | 476 kts | 118° |
| 2026-05-06 19:30 | -5.44651 | 108.58499 | 32871 ft | 476 kts | 118° |
| 2026-05-06 19:31 | -5.47847 | 108.64312 | 32869 ft | 476 kts | 118° |
| 2026-05-06 19:31 | -5.52639 | 108.73034 | 32872 ft | 476 kts | 118° |
| 2026-05-06 19:32 | -5.55837 | 108.78855 | 32870 ft | 476 kts | 118° |
| 2026-05-06 19:32 | -5.59031 | 108.84671 | 32871 ft | 476 kts | 119° |
| 2026-05-06 19:33 | -5.62231 | 108.90500 | 32871 ft | 476 kts | 119° |
| 2026-05-06 19:33 | -5.65426 | 108.96320 | 32870 ft | 477 kts | 119° |
| 2026-05-06 19:34 | -5.68623 | 109.02147 | 32870 ft | 477 kts | 119° |
| 2026-05-06 19:34 | -5.71824 | 109.07981 | 32870 ft | 477 kts | 119° |
| 2026-05-06 19:35 | -5.75023 | 109.13815 | 32869 ft | 477 kts | 119° |
| 2026-05-06 19:35 | -5.78224 | 109.19654 | 32871 ft | 477 kts | 119° |
| 2026-05-06 19:36 | -5.80883 | 109.24508 | 32859 ft | 477 kts | 119° |
| 2026-05-06 19:36 | -5.84086 | 109.30352 | 32864 ft | 478 kts | 119° |
| 2026-05-06 19:37 | -5.87291 | 109.36203 | 32859 ft | 478 kts | 119° |
| 2026-05-06 19:37 | -5.90493 | 109.42049 | 32862 ft | 478 kts | 119° |
| 2026-05-06 19:38 | -5.93701 | 109.47910 | 32861 ft | 479 kts | 119° |
| 2026-05-06 19:38 | -5.96907 | 109.53769 | 32861 ft | 479 kts | 119° |
| 2026-05-06 19:39 | -6.00115 | 109.59636 | 32862 ft | 479 kts | 119° |
| 2026-05-06 19:39 | -6.03321 | 109.65497 | 32861 ft | 479 kts | 119° |
| 2026-05-06 19:40 | -6.06531 | 109.71366 | 32862 ft | 479 kts | 119° |
| 2026-05-06 19:40 | -6.09741 | 109.77240 | 32862 ft | 480 kts | 119° |
| 2026-05-06 19:41 | -6.12950 | 109.83114 | 32861 ft | 480 kts | 119° |
| 2026-05-06 19:41 | -6.16161 | 109.88990 | 32861 ft | 480 kts | 119° |
| 2026-05-06 19:42 | -6.19374 | 109.94876 | 32861 ft | 480 kts | 119° |
| 2026-05-06 19:42 | -6.22584 | 110.00756 | 32859 ft | 480 kts | 119° |
| 2026-05-06 19:43 | -6.25794 | 110.06639 | 32861 ft | 480 kts | 119° |
| 2026-05-06 19:43 | -6.29004 | 110.12523 | 32860 ft | 480 kts | 119° |
| 2026-05-06 19:44 | -6.32213 | 110.18409 | 32860 ft | 480 kts | 119° |
| 2026-05-06 19:44 | -6.35399 | 110.24250 | 32863 ft | 479 kts | 119° |
| 2026-05-06 19:45 | -6.38602 | 110.30129 | 32859 ft | 480 kts | 119° |
| 2026-05-06 19:45 | -6.41806 | 110.36008 | 32862 ft | 479 kts | 119° |
| 2026-05-06 19:46 | -6.45006 | 110.41887 | 32862 ft | 480 kts | 119° |
| 2026-05-06 19:46 | -6.48210 | 110.47773 | 32859 ft | 480 kts | 119° |
| 2026-05-06 19:47 | -6.51414 | 110.53659 | 32861 ft | 480 kts | 119° |
| 2026-05-06 19:47 | -6.54619 | 110.59551 | 32863 ft | 480 kts | 119° |
| 2026-05-06 19:48 | -6.57827 | 110.65451 | 32861 ft | 481 kts | 119° |
| 2026-05-06 19:48 | -6.61033 | 110.71344 | 32860 ft | 481 kts | 119° |
| 2026-05-06 19:49 | -6.64242 | 110.77249 | 32862 ft | 481 kts | 119° |
| 2026-05-06 19:49 | -6.67448 | 110.83151 | 32863 ft | 481 kts | 120° |
| 2026-05-06 19:50 | -6.70657 | 110.89062 | 32859 ft | 481 kts | 120° |
| 2026-05-06 19:50 | -6.73865 | 110.94970 | 32861 ft | 481 kts | 120° |
| 2026-05-06 19:51 | -6.77075 | 111.00884 | 32861 ft | 481 kts | 120° |
| 2026-05-06 19:51 | -6.80282 | 111.06794 | 32861 ft | 482 kts | 119° |
| 2026-05-06 19:52 | -6.83493 | 111.12715 | 32860 ft | 482 kts | 120° |
| 2026-05-06 19:52 | -6.86700 | 111.18631 | 32861 ft | 482 kts | 120° |
| 2026-05-06 19:53 | -6.89909 | 111.24554 | 32860 ft | 482 kts | 120° |
| 2026-05-06 19:53 | -6.93117 | 111.30478 | 32862 ft | 482 kts | 120° |
| 2026-05-06 19:54 | -6.96330 | 111.36410 | 32860 ft | 482 kts | 120° |
| 2026-05-06 19:54 | -6.99496 | 111.42362 | 32858 ft | 483 kts | 114° |
| 2026-05-06 19:55 | -7.01520 | 111.48807 | 32862 ft | 484 kts | 105° |
| 2026-05-06 19:55 | -7.03198 | 111.55368 | 32859 ft | 481 kts | 105° |
| 2026-05-06 19:56 | -7.04046 | 111.58578 | 32724 ft | 469 kts | 106° |
| 2026-05-06 19:56 | -7.04905 | 111.61723 | 32289 ft | 463 kts | 107° |
| 2026-05-06 19:56 | -7.05773 | 111.64829 | 31761 ft | 458 kts | 107° |
| 2026-05-06 19:56 | -7.06640 | 111.67894 | 31262 ft | 454 kts | 107° |
| 2026-05-06 19:57 | -7.07502 | 111.70933 | 30748 ft | 450 kts | 107° |
| 2026-05-06 19:57 | -7.08357 | 111.73949 | 30227 ft | 445 kts | 107° |
| 2026-05-06 19:57 | -7.09202 | 111.76931 | 29716 ft | 442 kts | 107° |
| 2026-05-06 19:57 | -7.10038 | 111.79893 | 29203 ft | 438 kts | 107° |
| 2026-05-06 19:58 | -7.10867 | 111.82828 | 28702 ft | 434 kts | 107° |
| 2026-05-06 19:58 | -7.11686 | 111.85733 | 28185 ft | 430 kts | 107° |
| 2026-05-06 19:58 | -7.12499 | 111.88617 | 27683 ft | 426 kts | 107° |
| 2026-05-06 19:58 | -7.13306 | 111.91480 | 27179 ft | 423 kts | 107° |
| 2026-05-06 19:59 | -7.14106 | 111.94319 | 26680 ft | 420 kts | 107° |
| 2026-05-06 19:59 | -7.14900 | 111.97136 | 26189 ft | 417 kts | 106° |
| 2026-05-06 19:59 | -7.15898 | 111.99846 | 25655 ft | 412 kts | 121° |
| 2026-05-06 19:59 | -7.17636 | 112.02114 | 25196 ft | 407 kts | 134° |
| 2026-05-06 20:00 | -7.19587 | 112.04160 | 24700 ft | 404 kts | 135° |
| 2026-05-06 20:00 | -7.21548 | 112.06173 | 24209 ft | 402 kts | 135° |
| 2026-05-06 20:00 | -7.23497 | 112.08176 | 23731 ft | 399 kts | 135° |
| 2026-05-06 20:00 | -7.25426 | 112.10175 | 23240 ft | 397 kts | 134° |
| 2026-05-06 20:01 | -7.27337 | 112.12170 | 22768 ft | 394 kts | 134° |
| 2026-05-06 20:01 | -7.29230 | 112.14158 | 22295 ft | 392 kts | 134° |
| 2026-05-06 20:01 | -7.31110 | 112.16139 | 21825 ft | 390 kts | 134° |
| 2026-05-06 20:01 | -7.32975 | 112.18106 | 21362 ft | 387 kts | 134° |
| 2026-05-06 20:02 | -7.34826 | 112.20060 | 20896 ft | 384 kts | 134° |
| 2026-05-06 20:02 | -7.36665 | 112.22002 | 20434 ft | 382 kts | 134° |
| 2026-05-06 20:02 | -7.38493 | 112.23932 | 19979 ft | 379 kts | 134° |
| 2026-05-06 20:02 | -7.40307 | 112.25848 | 19520 ft | 377 kts | 134° |
| 2026-05-06 20:03 | -7.42112 | 112.27753 | 19055 ft | 374 kts | 134° |
| 2026-05-06 20:03 | -7.43902 | 112.29644 | 18611 ft | 372 kts | 134° |
| 2026-05-06 20:03 | -7.45681 | 112.31521 | 18161 ft | 369 kts | 134° |
| 2026-05-06 20:03 | -7.47238 | 112.33518 | 17685 ft | 368 kts | 117° |
| 2026-05-06 20:04 | -7.48075 | 112.35933 | 17289 ft | 365 kts | 103° |
| 2026-05-06 20:04 | -7.48582 | 112.38428 | 16847 ft | 362 kts | 101° |
| 2026-05-06 20:04 | -7.49044 | 112.40948 | 16399 ft | 360 kts | 101° |
| 2026-05-06 20:04 | -7.49493 | 112.43420 | 15959 ft | 358 kts | 101° |
| 2026-05-06 20:05 | -7.49943 | 112.45843 | 15527 ft | 355 kts | 101° |
| 2026-05-06 20:05 | -7.50407 | 112.48280 | 15091 ft | 353 kts | 101° |
| 2026-05-06 20:05 | -7.50874 | 112.50700 | 14657 ft | 351 kts | 101° |
| 2026-05-06 20:05 | -7.51341 | 112.53100 | 14229 ft | 348 kts | 101° |
| 2026-05-06 20:06 | -7.51810 | 112.55490 | 13795 ft | 346 kts | 101° |
| 2026-05-06 20:06 | -7.52273 | 112.57853 | 13498 ft | 340 kts | 101° |
| 2026-05-06 20:06 | -7.52724 | 112.60147 | 13348 ft | 329 kts | 101° |
| 2026-05-06 20:06 | -7.53161 | 112.62377 | 13201 ft | 319 kts | 101° |
| 2026-05-06 20:07 | -7.53585 | 112.64538 | 13061 ft | 309 kts | 101° |
| 2026-05-06 20:07 | -7.53995 | 112.66628 | 12922 ft | 300 kts | 101° |
| 2026-05-06 20:07 | -7.54391 | 112.68648 | 12857 ft | 287 kts | 101° |
| 2026-05-06 20:07 | -7.54772 | 112.70603 | 12861 ft | 283 kts | 101° |
| 2026-05-06 20:08 | -7.55150 | 112.72549 | 12872 ft | 283 kts | 101° |
| 2026-05-06 20:08 | -7.55530 | 112.74500 | 12871 ft | 285 kts | 101° |
| 2026-05-06 20:08 | -7.55911 | 112.76460 | 12868 ft | 285 kts | 101° |
| 2026-05-06 20:08 | -7.56296 | 112.78426 | 12870 ft | 285 kts | 101° |
| 2026-05-06 20:09 | -7.56678 | 112.80388 | 12868 ft | 286 kts | 101° |
| 2026-05-06 20:09 | -7.57059 | 112.82353 | 12834 ft | 286 kts | 101° |
| 2026-05-06 20:09 | -7.57449 | 112.84340 | 12500 ft | 291 kts | 101° |
| 2026-05-06 20:09 | -7.57840 | 112.86333 | 12222 ft | 289 kts | 101° |
| 2026-05-06 20:10 | -7.58229 | 112.88308 | 11931 ft | 285 kts | 101° |
| 2026-05-06 20:10 | -7.58612 | 112.90254 | 11651 ft | 282 kts | 100° |
| 2026-05-06 20:10 | -7.58991 | 112.92182 | 11376 ft | 278 kts | 100° |
| 2026-05-06 20:10 | -7.59364 | 112.94083 | 11111 ft | 275 kts | 100° |
| 2026-05-06 20:11 | -7.59732 | 112.95960 | 10834 ft | 272 kts | 100° |
| 2026-05-06 20:11 | -7.60097 | 112.97816 | 10569 ft | 269 kts | 100° |
| 2026-05-06 20:11 | -7.60458 | 112.99652 | 10304 ft | 266 kts | 100° |
| 2026-05-06 20:11 | -7.60813 | 113.01474 | 10054 ft | 263 kts | 100° |
| 2026-05-06 20:12 | -7.61164 | 113.03282 | 9807 ft | 263 kts | 100° |
| 2026-05-06 20:12 | -7.61515 | 113.05093 | 9552 ft | 264 kts | 100° |
| 2026-05-06 20:12 | -7.61868 | 113.06913 | 9300 ft | 265 kts | 100° |
| 2026-05-06 20:12 | -7.62224 | 113.08743 | 9038 ft | 266 kts | 101° |
| 2026-05-06 20:13 | -7.62580 | 113.10574 | 8772 ft | 266 kts | 101° |
| 2026-05-06 20:13 | -7.62936 | 113.12409 | 8512 ft | 266 kts | 101° |
| 2026-05-06 20:13 | -7.63126 | 113.14244 | 8213 ft | 263 kts | 82° |
| 2026-05-06 20:13 | -7.62492 | 113.15934 | 7977 ft | 258 kts | 54° |
| 2026-05-06 20:14 | -7.61203 | 113.17180 | 7738 ft | 258 kts | 32° |
| 2026-05-06 20:14 | -7.59532 | 113.17848 | 7494 ft | 261 kts | 14° |
| 2026-05-06 20:14 | -7.57755 | 113.18225 | 7241 ft | 262 kts | 13° |
| 2026-05-06 20:14 | -7.55965 | 113.18589 | 6977 ft | 264 kts | 13° |
| 2026-05-06 20:15 | -7.54166 | 113.18963 | 6707 ft | 264 kts | 13° |
| 2026-05-06 20:15 | -7.52363 | 113.19345 | 6447 ft | 264 kts | 13° |
| 2026-05-06 20:15 | -7.50573 | 113.19725 | 6184 ft | 262 kts | 13° |
| 2026-05-06 20:15 | -7.48774 | 113.19858 | 5895 ft | 261 kts | 349° |
| 2026-05-06 20:16 | -7.47163 | 113.19081 | 5663 ft | 259 kts | 318° |
| 2026-05-06 20:16 | -7.46115 | 113.17626 | 5428 ft | 259 kts | 292° |
| 2026-05-06 20:16 | -7.45628 | 113.15903 | 5207 ft | 260 kts | 282° |
| 2026-05-06 20:16 | -7.45260 | 113.14116 | 4941 ft | 261 kts | 281° |
| 2026-05-06 20:17 | -7.44897 | 113.12314 | 4683 ft | 263 kts | 281° |
| 2026-05-06 20:17 | -7.44529 | 113.10512 | 4417 ft | 262 kts | 282° |
| 2026-05-06 20:17 | -7.44156 | 113.08729 | 4155 ft | 258 kts | 282° |
| 2026-05-06 20:17 | -7.43783 | 113.06969 | 3897 ft | 255 kts | 282° |
| 2026-05-06 20:18 | -7.43409 | 113.05225 | 3650 ft | 253 kts | 282° |
| 2026-05-06 20:18 | -7.43040 | 113.03503 | 3403 ft | 250 kts | 282° |
| 2026-05-06 20:18 | -7.42579 | 113.01830 | 3190 ft | 246 kts | 289° |
| 2026-05-06 20:18 | -7.42000 | 113.00227 | 2997 ft | 241 kts | 290° |
| 2026-05-06 20:19 | -7.41433 | 112.98671 | 2883 ft | 233 kts | 290° |
| 2026-05-06 20:19 | -7.40914 | 112.97148 | 2862 ft | 229 kts | 281° |
| 2026-05-06 20:19 | -7.40680 | 112.95570 | 2872 ft | 228 kts | 277° |
| 2026-05-06 20:19 | -7.40443 | 112.93979 | 2875 ft | 232 kts | 278° |
| 2026-05-06 20:20 | -7.40194 | 112.92380 | 2823 ft | 235 kts | 278° |
| 2026-05-06 20:20 | -7.39931 | 112.90690 | 2030 ft | 250 kts | 278° |
| 2026-05-06 20:20 | -7.39656 | 112.88975 | 1616 ft | 244 kts | 278° |
| 2026-05-06 20:20 | -7.39389 | 112.87335 | 1412 ft | 229 kts | 278° |
| 2026-05-06 20:21 | -7.39217 | 112.86283 | 1232 ft | 222 kts | 278° |
| 2026-05-06 20:21 | -7.38974 | 112.84783 | 988 ft | 213 kts | 279° |
| 2026-05-06 20:21 | -7.38738 | 112.83327 | 703 ft | 207 kts | 279° |
| 2026-05-06 20:21 | -7.38515 | 112.81951 | 437 ft | 190 kts | 279° |
| 2026-05-06 20:22 | -7.38307 | 112.80662 | 398 ft | 188 kts | 279° |
| 2026-05-06 20:22 | -7.38118 | 112.79466 | 1364 ft | 164 kts | 279° |
| 2026-05-06 20:22 | -7.37922 | 112.78263 | 1633 ft | 190 kts | 279° |
| 2026-05-06 20:22 | -7.37935 | 112.76849 | 1773 ft | 213 kts | 251° |
| 2026-05-06 20:23 | -7.38787 | 112.75587 | 2038 ft | 230 kts | 217° |
| 2026-05-06 20:23 | -7.40282 | 112.74948 | 2312 ft | 239 kts | 186° |
| 2026-05-06 20:23 | -7.41932 | 112.74850 | 2589 ft | 243 kts | 181° |
| 2026-05-06 20:23 | -7.43652 | 112.74808 | 2847 ft | 244 kts | 181° |
| 2026-05-06 20:24 | -7.45345 | 112.74890 | 2965 ft | 247 kts | 163° |
| 2026-05-06 20:24 | -7.46784 | 112.75722 | 3006 ft | 244 kts | 134° |
| 2026-05-06 20:24 | -7.47617 | 112.77208 | 3014 ft | 243 kts | 105° |
| 2026-05-06 20:24 | -7.47958 | 112.78858 | 2998 ft | 245 kts | 100° |
| 2026-05-06 20:25 | -7.48253 | 112.80571 | 2989 ft | 245 kts | 100° |
| 2026-05-06 20:25 | -7.48534 | 112.82258 | 2945 ft | 243 kts | 99° |
| 2026-05-06 20:25 | -7.48797 | 112.83866 | 2774 ft | 225 kts | 100° |
| 2026-05-06 20:25 | -7.48906 | 112.85372 | 2508 ft | 209 kts | 79° |
| 2026-05-06 20:26 | -7.48272 | 112.86611 | 2234 ft | 196 kts | 42° |
| 2026-05-06 20:26 | -7.47101 | 112.87183 | 1978 ft | 183 kts | 12° |
| 2026-05-06 20:26 | -7.45855 | 112.87433 | 1790 ft | 184 kts | 10° |
| 2026-05-06 20:26 | -7.44628 | 112.87660 | 1787 ft | 177 kts | 10° |
| 2026-05-06 20:27 | -7.43477 | 112.87869 | 1677 ft | 158 kts | 9° |
| 2026-05-06 20:27 | -7.42407 | 112.88071 | 1291 ft | 154 kts | 9° |
| 2026-05-06 20:27 | -7.41387 | 112.88268 | 1257 ft | 150 kts | 9° |
| 2026-05-06 20:27 | -7.40312 | 112.88351 | 1375 ft | 159 kts | 348° |
| 2026-05-06 20:28 | -7.39370 | 112.87835 | 1412 ft | 155 kts | 311° |
| 2026-05-06 20:28 | -7.38953 | 112.86846 | 1077 ft | 160 kts | 271° |
| 2026-05-06 20:28 | -7.39013 | 112.85759 | 913 ft | 155 kts | 268° |
| 2026-05-06 20:28 | -7.38970 | 112.84651 | 890 ft | 158 kts | 278° |
| 2026-05-06 20:29 | -7.38769 | 112.83599 | 677 ft | 149 kts | 279° |
| 2026-05-06 20:29 | -7.38614 | 112.82578 | 537 ft | 147 kts | 279° |
| 2026-05-06 20:29 | -7.38444 | 112.81535 | 331 ft | 154 kts | 278° |
| 2026-05-06 20:29 | -7.38276 | 112.80499 | 146 ft | 147 kts | 279° |
| 2026-05-06 20:30 | -7.38114 | 112.79506 | 10 ft | 137 kts | 279° |
| 2026-05-06 20:30 | -7.37913 | 112.78260 | 7 ft | 35 kts | 279° |
| 2026-05-06 20:30 | -7.37841 | 112.78122 | 8 ft | 10 kts | 310° |
| 2026-05-06 20:31 | -7.37798 | 112.78070 | 8 ft | 10 kts | 310° |
| 2026-05-06 20:31 | -7.37751 | 112.78025 | 9 ft | 9 kts | 341° |
| 2026-05-06 20:31 | -7.37710 | 112.78063 | 8 ft | 9 kts | 82° |
| 2026-05-06 20:31 | -7.37711 | 112.78126 | 8 ft | 9 kts | 72° |
| 2026-05-06 20:32 | -7.37662 | 112.78158 | 8 ft | 9 kts | 11° |
| 2026-05-06 20:32 | -7.37618 | 112.78191 | 8 ft | 8 kts | 75° |
| 2026-05-06 20:32 | -7.37623 | 112.78249 | 8 ft | 8 kts | 99° |
| 2026-05-06 20:32 | -7.37630 | 112.78296 | 8 ft | 3 kts | 99° |
| 2026-05-06 20:33 | -7.37619 | 112.78315 | 9 ft | 3 kts | 27° |
| 2026-05-06 20:33 | -7.37595 | 112.78321 | 8 ft | 4 kts | 10° |
| 2026-05-06 20:33 | -7.37580 | 112.78324 | 8 ft | 1 kts | 9° |
| 2026-05-06 20:33 | -7.37579 | 112.78324 | 8 ft | 0 kts | 9° |